sensor_id;sensor_type;location;lat;lon;timestamp;temperature;humidity
71942;DHT22;59997;53.300;-6.260;2023-08-17T00:00:45;10.53;93.98
71942;DHT22;59997;53.300;-6.260;2023-08-17T00:03:11;10.45;93.97
71942;DHT22;59997;53.300;-6.260;2023-08-17T00:05:37;10.39;94.00
71942;DHT22;59997;53.300;-6.260;2023-08-17T00:08:02;10.59;94.00
71942;DHT22;59997;53.300;-6.260;2023-08-17T00:10:28;10.59;93.96
71942;DHT22;59997;53.300;-6.260;2023-08-17T00:12:54;10.53;93.96
71942;DHT22;59997;53.300;-6.260;2023-08-17T00:15:19;10.46;93.90
71942;DHT22;59997;53.300;-6.260;2023-08-17T00:17:45;10.41;93.98
71942;DHT22;59997;53.300;-6.260;2023-08-17T00:20:10;10.48;93.93
71942;DHT22;59997;53.300;-6.260;2023-08-17T00:22:36;10.39;93.91
71942;DHT22;59997;53.300;-6.260;2023-08-17T00:25:02;10.22;93.91
71942;DHT22;59997;53.300;-6.260;2023-08-17T00:27:32;10.21;93.93
71942;DHT22;59997;53.300;-6.260;2023-08-17T00:29:57;10.25;93.94
71942;DHT22;59997;53.300;-6.260;2023-08-17T00:32:23;10.31;93.96
71942;DHT22;59997;53.300;-6.260;2023-08-17T00:34:48;10.24;93.98
71942;DHT22;59997;53.300;-6.260;2023-08-17T00:37:13;10.29;93.97
71942;DHT22;59997;53.300;-6.260;2023-08-17T00:39:39;10.19;93.98
71942;DHT22;59997;53.300;-6.260;2023-08-17T00:42:05;10.09;93.98
71942;DHT22;59997;53.300;-6.260;2023-08-17T00:44:30;9.98;94.03
71942;DHT22;59997;53.300;-6.260;2023-08-17T00:46:55;9.87;94.05
71942;DHT22;59997;53.300;-6.260;2023-08-17T00:49:22;9.74;94.07
71942;DHT22;59997;53.300;-6.260;2023-08-17T00:51:48;9.66;94.06
71942;DHT22;59997;53.300;-6.260;2023-08-17T00:54:15;9.63;94.08
71942;DHT22;59997;53.300;-6.260;2023-08-17T00:56:45;9.72;94.12
71942;DHT22;59997;53.300;-6.260;2023-08-17T00:59:10;9.91;94.08
71942;DHT22;59997;53.300;-6.260;2023-08-17T01:01:36;10.00;94.12
71942;DHT22;59997;53.300;-6.260;2023-08-17T01:04:01;10.19;94.08
71942;DHT22;59997;53.300;-6.260;2023-08-17T01:06:26;10.14;94.10
71942;DHT22;59997;53.300;-6.260;2023-08-17T01:08:53;10.07;94.04
71942;DHT22;59997;53.300;-6.260;2023-08-17T01:14:27;10.07;94.03
71942;DHT22;59997;53.300;-6.260;2023-08-17T01:17:00;10.14;94.01
71942;DHT22;59997;53.300;-6.260;2023-08-17T01:19:28;10.09;94.00
71942;DHT22;59997;53.300;-6.260;2023-08-17T01:22:00;10.09;93.98
71942;DHT22;59997;53.300;-6.260;2023-08-17T01:24:28;10.07;93.99
71942;DHT22;59997;53.300;-6.260;2023-08-17T01:26:53;10.01;94.03
71942;DHT22;59997;53.300;-6.260;2023-08-17T01:29:19;10.01;94.02
71942;DHT22;59997;53.300;-6.260;2023-08-17T01:34:25;10.12;94.02
71942;DHT22;59997;53.300;-6.260;2023-08-17T01:36:57;10.11;94.03
71942;DHT22;59997;53.300;-6.260;2023-08-17T01:39:29;10.07;94.05
71942;DHT22;59997;53.300;-6.260;2023-08-17T01:41:57;9.98;94.05
71942;DHT22;59997;53.300;-6.260;2023-08-17T01:44:23;10.08;94.00
71942;DHT22;59997;53.300;-6.260;2023-08-17T01:46:51;10.11;94.06
71942;DHT22;59997;53.300;-6.260;2023-08-17T01:49:16;9.93;93.99
71942;DHT22;59997;53.300;-6.260;2023-08-17T01:51:42;9.82;94.02
71942;DHT22;59997;53.300;-6.260;2023-08-17T01:54:08;9.70;94.03
71942;DHT22;59997;53.300;-6.260;2023-08-17T01:56:33;9.67;94.07
71942;DHT22;59997;53.300;-6.260;2023-08-17T01:58:59;9.73;94.09
71942;DHT22;59997;53.300;-6.260;2023-08-17T02:01:24;9.87;94.11
71942;DHT22;59997;53.300;-6.260;2023-08-17T02:03:51;9.95;94.09
71942;DHT22;59997;53.300;-6.260;2023-08-17T02:06:16;9.89;94.08
71942;DHT22;59997;53.300;-6.260;2023-08-17T02:08:41;9.91;94.12
71942;DHT22;59997;53.300;-6.260;2023-08-17T02:11:07;9.87;94.16
71942;DHT22;59997;53.300;-6.260;2023-08-17T02:13:32;9.87;94.13
71942;DHT22;59997;53.300;-6.260;2023-08-17T02:15:58;9.93;94.15
71942;DHT22;59997;53.300;-6.260;2023-08-17T02:18:23;10.11;94.15
71942;DHT22;59997;53.300;-6.260;2023-08-17T02:20:49;10.32;94.13
71942;DHT22;59997;53.300;-6.260;2023-08-17T02:23:14;10.46;94.12
71942;DHT22;59997;53.300;-6.260;2023-08-17T02:25:40;10.53;94.05
71942;DHT22;59997;53.300;-6.260;2023-08-17T02:28:05;10.46;94.05
71942;DHT22;59997;53.300;-6.260;2023-08-17T02:30:31;10.38;94.05
71942;DHT22;59997;53.300;-6.260;2023-08-17T02:32:57;10.35;94.05
71942;DHT22;59997;53.300;-6.260;2023-08-17T02:35:23;10.19;94.04
71942;DHT22;59997;53.300;-6.260;2023-08-17T02:37:48;9.98;94.07
71942;DHT22;59997;53.300;-6.260;2023-08-17T02:40:14;9.98;94.08
71942;DHT22;59997;53.300;-6.260;2023-08-17T02:42:39;10.07;94.10
71942;DHT22;59997;53.300;-6.260;2023-08-17T02:45:08;10.19;94.06
71942;DHT22;59997;53.300;-6.260;2023-08-17T02:47:34;10.28;94.05
71942;DHT22;59997;53.300;-6.260;2023-08-17T02:49:59;10.28;94.09
71942;DHT22;59997;53.300;-6.260;2023-08-17T02:52:24;10.36;94.10
71942;DHT22;59997;53.300;-6.260;2023-08-17T02:54:50;10.32;94.06
71942;DHT22;59997;53.300;-6.260;2023-08-17T02:57:15;10.34;94.06
71942;DHT22;59997;53.300;-6.260;2023-08-17T02:59:41;10.38;94.00
71942;DHT22;59997;53.300;-6.260;2023-08-17T03:02:06;10.43;94.03
71942;DHT22;59997;53.300;-6.260;2023-08-17T03:04:32;10.38;94.01
71942;DHT22;59997;53.300;-6.260;2023-08-17T03:06:58;10.29;93.98
71942;DHT22;59997;53.300;-6.260;2023-08-17T03:09:23;10.31;93.97
71942;DHT22;59997;53.300;-6.260;2023-08-17T03:11:49;10.25;93.96
71942;DHT22;59997;53.300;-6.260;2023-08-17T03:14:14;10.22;93.98
71942;DHT22;59997;53.300;-6.260;2023-08-17T03:16:39;10.22;93.94
71942;DHT22;59997;53.300;-6.260;2023-08-17T03:19:05;10.24;93.96
71942;DHT22;59997;53.300;-6.260;2023-08-17T03:21:33;10.26;94.01
71942;DHT22;59997;53.300;-6.260;2023-08-17T03:23:59;10.36;94.00
71942;DHT22;59997;53.300;-6.260;2023-08-17T03:26:24;10.32;94.00
71942;DHT22;59997;53.300;-6.260;2023-08-17T03:28:50;10.26;94.01
71942;DHT22;59997;53.300;-6.260;2023-08-17T03:31:15;10.28;93.98
71942;DHT22;59997;53.300;-6.260;2023-08-17T03:33:40;10.26;94.04
71942;DHT22;59997;53.300;-6.260;2023-08-17T03:36:06;10.26;94.06
71942;DHT22;59997;53.300;-6.260;2023-08-17T03:38:31;10.26;94.08
71942;DHT22;59997;53.300;-6.260;2023-08-17T03:40:57;10.17;94.06
71942;DHT22;59997;53.300;-6.260;2023-08-17T03:43:22;10.28;94.12
71942;DHT22;59997;53.300;-6.260;2023-08-17T03:45:48;10.32;94.12
71942;DHT22;59997;53.300;-6.260;2023-08-17T03:48:13;10.48;94.10
71942;DHT22;59997;53.300;-6.260;2023-08-17T03:50:39;10.64;94.09
71942;DHT22;59997;53.300;-6.260;2023-08-17T03:53:04;10.57;94.11
71942;DHT22;59997;53.300;-6.260;2023-08-17T03:55:30;10.49;94.13
71942;DHT22;59997;53.300;-6.260;2023-08-17T03:57:55;10.39;94.16
71942;DHT22;59997;53.300;-6.260;2023-08-17T04:00:20;10.29;94.18
71942;DHT22;59997;53.300;-6.260;2023-08-17T04:02:46;10.29;94.15
71942;DHT22;59997;53.300;-6.260;2023-08-17T04:05:12;10.36;94.14
71942;DHT22;59997;53.300;-6.260;2023-08-17T04:07:38;10.41;94.16
71942;DHT22;59997;53.300;-6.260;2023-08-17T04:10:05;10.52;94.17
71942;DHT22;59997;53.300;-6.260;2023-08-17T04:12:30;10.46;94.21
71942;DHT22;59997;53.300;-6.260;2023-08-17T04:14:56;10.28;94.19
71942;DHT22;59997;53.300;-6.260;2023-08-17T04:17:22;10.32;94.21
71942;DHT22;59997;53.300;-6.260;2023-08-17T04:19:47;10.45;94.20
71942;DHT22;59997;53.300;-6.260;2023-08-17T04:22:13;10.42;94.16
71942;DHT22;59997;53.300;-6.260;2023-08-17T04:24:38;10.32;94.21
71942;DHT22;59997;53.300;-6.260;2023-08-17T04:27:04;10.38;94.18
71942;DHT22;59997;53.300;-6.260;2023-08-17T04:29:30;10.71;94.17
71942;DHT22;59997;53.300;-6.260;2023-08-17T04:31:57;10.73;94.13
71942;DHT22;59997;53.300;-6.260;2023-08-17T04:34:22;10.52;94.16
71942;DHT22;59997;53.300;-6.260;2023-08-17T04:36:48;10.36;94.13
71942;DHT22;59997;53.300;-6.260;2023-08-17T04:39:13;10.32;94.16
71942;DHT22;59997;53.300;-6.260;2023-08-17T04:41:39;10.21;94.18
71942;DHT22;59997;53.300;-6.260;2023-08-17T04:44:05;10.08;94.12
71942;DHT22;59997;53.300;-6.260;2023-08-17T04:46:30;9.91;94.16
71942;DHT22;59997;53.300;-6.260;2023-08-17T04:48:56;9.74;94.21
71942;DHT22;59997;53.300;-6.260;2023-08-17T04:51:21;9.63;94.23
71942;DHT22;59997;53.300;-6.260;2023-08-17T04:53:47;9.70;94.28
71942;DHT22;59997;53.300;-6.260;2023-08-17T04:56:12;9.91;94.31
71942;DHT22;59997;53.300;-6.260;2023-08-17T04:58:37;9.98;94.32
71942;DHT22;59997;53.300;-6.260;2023-08-17T05:01:03;9.97;94.30
71942;DHT22;59997;53.300;-6.260;2023-08-17T05:03:28;9.98;94.32
71942;DHT22;59997;53.300;-6.260;2023-08-17T05:05:54;10.05;94.38
71942;DHT22;59997;53.300;-6.260;2023-08-17T05:08:19;9.94;94.36
71942;DHT22;59997;53.300;-6.260;2023-08-17T05:10:47;9.90;94.33
71942;DHT22;59997;53.300;-6.260;2023-08-17T05:13:12;9.94;94.37
71942;DHT22;59997;53.300;-6.260;2023-08-17T05:15:38;10.04;94.43
71942;DHT22;59997;53.300;-6.260;2023-08-17T05:18:03;10.18;94.40
71942;DHT22;59997;53.300;-6.260;2023-08-17T05:20:29;10.34;94.45
71942;DHT22;59997;53.300;-6.260;2023-08-17T05:22:55;10.42;94.43
71942;DHT22;59997;53.300;-6.260;2023-08-17T05:25:21;10.66;94.44
71942;DHT22;59997;53.300;-6.260;2023-08-17T05:27:47;10.78;94.40
71942;DHT22;59997;53.300;-6.260;2023-08-17T05:30:14;10.88;94.43
71942;DHT22;59997;53.300;-6.260;2023-08-17T05:32:40;10.88;94.41
71942;DHT22;59997;53.300;-6.260;2023-08-17T05:35:06;10.97;94.41
71942;DHT22;59997;53.300;-6.260;2023-08-17T05:37:31;10.94;94.38
71942;DHT22;59997;53.300;-6.260;2023-08-17T05:39:57;10.94;94.37
71942;DHT22;59997;53.300;-6.260;2023-08-17T05:42:22;10.97;94.35
71942;DHT22;59997;53.300;-6.260;2023-08-17T05:44:47;11.21;94.38
71942;DHT22;59997;53.300;-6.260;2023-08-17T05:47:13;11.42;94.34
71942;DHT22;59997;53.300;-6.260;2023-08-17T05:49:40;11.62;94.30
71942;DHT22;59997;53.300;-6.260;2023-08-17T05:52:06;11.74;94.25
71942;DHT22;59997;53.300;-6.260;2023-08-17T05:54:32;11.84;94.24
71942;DHT22;59997;53.300;-6.260;2023-08-17T05:56:57;12.01;94.19
71942;DHT22;59997;53.300;-6.260;2023-08-17T05:59:23;12.11;94.15
71942;DHT22;59997;53.300;-6.260;2023-08-17T06:01:48;12.16;94.17
71942;DHT22;59997;53.300;-6.260;2023-08-17T06:04:13;12.19;94.12
71942;DHT22;59997;53.300;-6.260;2023-08-17T06:06:39;12.33;94.05
71942;DHT22;59997;53.300;-6.260;2023-08-17T06:09:05;12.47;94.01
71942;DHT22;59997;53.300;-6.260;2023-08-17T06:11:33;12.49;94.01
71942;DHT22;59997;53.300;-6.260;2023-08-17T06:13:58;12.50;93.95
71942;DHT22;59997;53.300;-6.260;2023-08-17T06:16:23;12.63;93.90
71942;DHT22;59997;53.300;-6.260;2023-08-17T06:18:49;12.68;93.86
71942;DHT22;59997;53.300;-6.260;2023-08-17T06:21:15;12.81;93.87
71942;DHT22;59997;53.300;-6.260;2023-08-17T06:23:40;12.88;93.78
71942;DHT22;59997;53.300;-6.260;2023-08-17T06:26:06;12.98;93.70
71942;DHT22;59997;53.300;-6.260;2023-08-17T06:28:33;13.12;93.67
71942;DHT22;59997;53.300;-6.260;2023-08-17T06:30:58;13.27;93.59
71942;DHT22;59997;53.300;-6.260;2023-08-17T06:33:24;13.50;93.42
71942;DHT22;59997;53.300;-6.260;2023-08-17T06:35:49;13.83;93.21
71942;DHT22;59997;53.300;-6.260;2023-08-17T06:38:15;14.21;92.93
71942;DHT22;59997;53.300;-6.260;2023-08-17T06:40:41;14.36;92.82
71942;DHT22;59997;53.300;-6.260;2023-08-17T06:43:06;14.31;93.19
71942;DHT22;59997;53.300;-6.260;2023-08-17T06:45:32;14.21;93.37
71942;DHT22;59997;53.300;-6.260;2023-08-17T06:47:58;14.24;93.57
71942;DHT22;59997;53.300;-6.260;2023-08-17T06:50:23;14.24;93.53
71942;DHT22;59997;53.300;-6.260;2023-08-17T06:52:49;14.34;93.64
71942;DHT22;59997;53.300;-6.260;2023-08-17T06:55:14;14.34;93.74
71942;DHT22;59997;53.300;-6.260;2023-08-17T06:57:41;14.40;93.62
71942;DHT22;59997;53.300;-6.260;2023-08-17T07:00:07;14.48;93.49
71942;DHT22;59997;53.300;-6.260;2023-08-17T07:02:33;14.54;93.48
71942;DHT22;59997;53.300;-6.260;2023-08-17T07:04:59;14.67;93.84
71942;DHT22;59997;53.300;-6.260;2023-08-17T07:07:25;14.82;94.05
71942;DHT22;59997;53.300;-6.260;2023-08-17T07:09:50;14.96;94.09
71942;DHT22;59997;53.300;-6.260;2023-08-17T07:12:16;15.03;94.45
71942;DHT22;59997;53.300;-6.260;2023-08-17T07:14:41;15.26;94.26
71942;DHT22;59997;53.300;-6.260;2023-08-17T07:17:06;15.38;94.06
71942;DHT22;59997;53.300;-6.260;2023-08-17T07:19:32;15.54;94.26
71942;DHT22;59997;53.300;-6.260;2023-08-17T07:21:57;15.89;94.13
71942;DHT22;59997;53.300;-6.260;2023-08-17T07:24:23;16.35;93.52
71942;DHT22;59997;53.300;-6.260;2023-08-17T07:26:48;17.03;92.78
71942;DHT22;59997;53.300;-6.260;2023-08-17T07:29:14;17.35;91.41
71942;DHT22;59997;53.300;-6.260;2023-08-17T07:31:40;17.69;89.19
71942;DHT22;59997;53.300;-6.260;2023-08-17T07:34:06;17.81;89.03
71942;DHT22;59997;53.300;-6.260;2023-08-17T07:36:32;18.87;87.51
71942;DHT22;59997;53.300;-6.260;2023-08-17T07:38:58;19.68;86.61
71942;DHT22;59997;53.300;-6.260;2023-08-17T07:41:24;19.67;82.67
71942;DHT22;59997;53.300;-6.260;2023-08-17T07:43:49;20.08;84.30
71942;DHT22;59997;53.300;-6.260;2023-08-17T07:46:15;20.33;82.98
71942;DHT22;59997;53.300;-6.260;2023-08-17T07:48:40;19.27;82.40
71942;DHT22;59997;53.300;-6.260;2023-08-17T07:51:06;17.88;84.62
71942;DHT22;59997;53.300;-6.260;2023-08-17T07:53:31;17.62;86.22
71942;DHT22;59997;53.300;-6.260;2023-08-17T07:55:57;18.42;85.38
71942;DHT22;59997;53.300;-6.260;2023-08-17T07:58:22;19.09;84.64
71942;DHT22;59997;53.300;-6.260;2023-08-17T08:00:48;19.91;82.11
71942;DHT22;59997;53.300;-6.260;2023-08-17T08:03:14;20.06;79.87
71942;DHT22;59997;53.300;-6.260;2023-08-17T08:05:40;20.77;79.55
71942;DHT22;59997;53.300;-6.260;2023-08-17T08:08:05;21.00;76.02
71942;DHT22;59997;53.300;-6.260;2023-08-17T08:10:31;21.34;76.29
71942;DHT22;59997;53.300;-6.260;2023-08-17T08:12:56;21.20;77.16
71942;DHT22;59997;53.300;-6.260;2023-08-17T08:15:22;21.27;77.15
71942;DHT22;59997;53.300;-6.260;2023-08-17T08:17:47;21.62;75.96
71942;DHT22;59997;53.300;-6.260;2023-08-17T08:20:13;21.77;76.40
71942;DHT22;59997;53.300;-6.260;2023-08-17T08:22:38;22.30;73.46
71942;DHT22;59997;53.300;-6.260;2023-08-17T08:25:04;22.32;74.86
71942;DHT22;59997;53.300;-6.260;2023-08-17T08:27:29;22.39;74.30
71942;DHT22;59997;53.300;-6.260;2023-08-17T08:29:55;22.61;73.20
71942;DHT22;59997;53.300;-6.260;2023-08-17T08:32:20;22.84;70.88
71942;DHT22;59997;53.300;-6.260;2023-08-17T08:34:46;22.88;70.90
71942;DHT22;59997;53.300;-6.260;2023-08-17T08:37:11;23.34;69.68
71942;DHT22;59997;53.300;-6.260;2023-08-17T08:39:51;23.27;71.05
71942;DHT22;59997;53.300;-6.260;2023-08-17T08:42:18;23.61;67.29
71942;DHT22;59997;53.300;-6.260;2023-08-17T08:44:44;23.41;66.00
71942;DHT22;59997;53.300;-6.260;2023-08-17T08:47:13;23.24;64.39
71942;DHT22;59997;53.300;-6.260;2023-08-17T08:49:40;23.48;67.66
71942;DHT22;59997;53.300;-6.260;2023-08-17T08:52:13;23.02;67.40
71942;DHT22;59997;53.300;-6.260;2023-08-17T08:54:43;23.33;66.32
71942;DHT22;59997;53.300;-6.260;2023-08-17T08:57:13;23.31;68.90
71942;DHT22;59997;53.300;-6.260;2023-08-17T08:59:42;23.93;65.84
71942;DHT22;59997;53.300;-6.260;2023-08-17T09:02:15;23.83;63.25
71942;DHT22;59997;53.300;-6.260;2023-08-17T09:04:45;23.28;63.17
71942;DHT22;59997;53.300;-6.260;2023-08-17T09:07:12;23.86;65.02
71942;DHT22;59997;53.300;-6.260;2023-08-17T09:09:38;24.61;61.84
71942;DHT22;59997;53.300;-6.260;2023-08-17T09:12:07;24.96;65.19
71942;DHT22;59997;53.300;-6.260;2023-08-17T09:14:32;24.72;62.14
71942;DHT22;59997;53.300;-6.260;2023-08-17T09:16:58;24.64;60.93
71942;DHT22;59997;53.300;-6.260;2023-08-17T09:19:24;24.12;63.52
71942;DHT22;59997;53.300;-6.260;2023-08-17T09:21:50;23.57;62.98
71942;DHT22;59997;53.300;-6.260;2023-08-17T09:24:16;23.44;64.55
71942;DHT22;59997;53.300;-6.260;2023-08-17T09:26:41;22.91;67.06
71942;DHT22;59997;53.300;-6.260;2023-08-17T09:29:20;21.96;68.28
71942;DHT22;59997;53.300;-6.260;2023-08-17T09:31:49;21.66;70.65
71942;DHT22;59997;53.300;-6.260;2023-08-17T09:34:15;21.55;69.33
71942;DHT22;59997;53.300;-6.260;2023-08-17T09:36:41;21.40;68.61
71942;DHT22;59997;53.300;-6.260;2023-08-17T09:39:07;21.46;72.25
71942;DHT22;59997;53.300;-6.260;2023-08-17T09:41:41;22.00;70.33
71942;DHT22;59997;53.300;-6.260;2023-08-17T09:44:07;22.81;69.18
71942;DHT22;59997;53.300;-6.260;2023-08-17T09:46:32;22.73;66.46
71942;DHT22;59997;53.300;-6.260;2023-08-17T09:48:58;23.38;68.08
71942;DHT22;59997;53.300;-6.260;2023-08-17T09:51:24;23.33;64.38
71942;DHT22;59997;53.300;-6.260;2023-08-17T09:53:52;22.92;66.05
71942;DHT22;59997;53.300;-6.260;2023-08-17T09:56:21;22.40;69.00
71942;DHT22;59997;53.300;-6.260;2023-08-17T09:58:47;22.27;69.51
71942;DHT22;59997;53.300;-6.260;2023-08-17T10:01:13;22.71;70.64
71942;DHT22;59997;53.300;-6.260;2023-08-17T10:03:43;23.30;68.19
71942;DHT22;59997;53.300;-6.260;2023-08-17T10:06:10;23.82;64.26
71942;DHT22;59997;53.300;-6.260;2023-08-17T10:08:43;24.02;66.22
71942;DHT22;59997;53.300;-6.260;2023-08-17T10:11:12;23.44;64.09
71942;DHT22;59997;53.300;-6.260;2023-08-17T10:16:45;23.14;66.16
71942;DHT22;59997;53.300;-6.260;2023-08-17T10:19:43;22.20;67.44
71942;DHT22;59997;53.300;-6.260;2023-08-17T10:24:34;22.45;68.23
71942;DHT22;59997;53.300;-6.260;2023-08-17T10:27:04;23.03;67.87
71942;DHT22;59997;53.300;-6.260;2023-08-17T10:29:31;23.38;67.34
71942;DHT22;59997;53.300;-6.260;2023-08-17T10:31:59;23.99;66.87
71942;DHT22;59997;53.300;-6.260;2023-08-17T10:34:25;24.86;65.65
71942;DHT22;59997;53.300;-6.260;2023-08-17T10:36:52;25.41;62.62
71942;DHT22;59997;53.300;-6.260;2023-08-17T10:39:21;24.58;63.99
71942;DHT22;59997;53.300;-6.260;2023-08-17T10:41:49;24.25;64.83
71942;DHT22;59997;53.300;-6.260;2023-08-17T10:44:17;24.06;67.25
71942;DHT22;59997;53.300;-6.260;2023-08-17T10:46:43;23.78;67.77
71942;DHT22;59997;53.300;-6.260;2023-08-17T10:49:26;23.95;64.76
71942;DHT22;59997;53.300;-6.260;2023-08-17T10:52:01;24.58;64.24
71942;DHT22;59997;53.300;-6.260;2023-08-17T10:54:36;25.35;62.88
71942;DHT22;59997;53.300;-6.260;2023-08-17T11:02:56;26.43;59.25
71942;DHT22;59997;53.300;-6.260;2023-08-17T11:08:33;25.27;61.10
71942;DHT22;59997;53.300;-6.260;2023-08-17T11:11:06;24.00;65.30
71942;DHT22;59997;53.300;-6.260;2023-08-17T11:13:34;24.04;64.52
71942;DHT22;59997;53.300;-6.260;2023-08-17T11:16:01;24.06;66.91
71942;DHT22;59997;53.300;-6.260;2023-08-17T11:18:27;23.75;64.03
71942;DHT22;59997;53.300;-6.260;2023-08-17T11:20:54;23.73;65.18
71942;DHT22;59997;53.300;-6.260;2023-08-17T11:23:20;24.02;63.54
71942;DHT22;59997;53.300;-6.260;2023-08-17T11:25:46;24.20;65.04
71942;DHT22;59997;53.300;-6.260;2023-08-17T11:28:13;24.89;64.37
71942;DHT22;59997;53.300;-6.260;2023-08-17T11:30:41;24.64;60.96
71942;DHT22;59997;53.300;-6.260;2023-08-17T11:33:08;25.06;60.78
71942;DHT22;59997;53.300;-6.260;2023-08-17T11:35:35;25.58;59.48
71942;DHT22;59997;53.300;-6.260;2023-08-17T11:38:01;25.46;61.95
71942;DHT22;59997;53.300;-6.260;2023-08-17T11:40:27;25.62;60.09
71942;DHT22;59997;53.300;-6.260;2023-08-17T11:42:52;25.66;58.73
71942;DHT22;59997;53.300;-6.260;2023-08-17T11:45:18;25.90;59.64
71942;DHT22;59997;53.300;-6.260;2023-08-17T11:47:46;25.61;60.01
71942;DHT22;59997;53.300;-6.260;2023-08-17T11:50:13;25.21;59.13
71942;DHT22;59997;53.300;-6.260;2023-08-17T11:52:40;25.23;60.38
71942;DHT22;59997;53.300;-6.260;2023-08-17T11:55:07;25.27;59.39
71942;DHT22;59997;53.300;-6.260;2023-08-17T11:57:35;25.21;60.94
71942;DHT22;59997;53.300;-6.260;2023-08-17T12:00:02;25.79;60.82
71942;DHT22;59997;53.300;-6.260;2023-08-17T12:02:30;26.14;60.57
71942;DHT22;59997;53.300;-6.260;2023-08-17T12:04:56;26.00;57.09
71942;DHT22;59997;53.300;-6.260;2023-08-17T12:07:23;26.01;62.18
71942;DHT22;59997;53.300;-6.260;2023-08-17T12:09:50;24.90;60.55
71942;DHT22;59997;53.300;-6.260;2023-08-17T12:12:21;24.18;62.64
71942;DHT22;59997;53.300;-6.260;2023-08-17T12:14:48;23.33;65.50
71942;DHT22;59997;53.300;-6.260;2023-08-17T12:17:15;22.65;67.61
71942;DHT22;59997;53.300;-6.260;2023-08-17T12:19:41;22.51;69.85
71942;DHT22;59997;53.300;-6.260;2023-08-17T12:22:07;22.06;68.91
71942;DHT22;59997;53.300;-6.260;2023-08-17T12:24:32;21.71;70.90
71942;DHT22;59997;53.300;-6.260;2023-08-17T12:26:59;21.51;71.36
71942;DHT22;59997;53.300;-6.260;2023-08-17T12:29:24;21.54;71.50
71942;DHT22;59997;53.300;-6.260;2023-08-17T12:31:51;21.34;71.10
71942;DHT22;59997;53.300;-6.260;2023-08-17T12:34:17;21.65;72.83
71942;DHT22;59997;53.300;-6.260;2023-08-17T12:36:43;21.55;70.13
71942;DHT22;59997;53.300;-6.260;2023-08-17T12:39:09;21.96;73.95
71942;DHT22;59997;53.300;-6.260;2023-08-17T12:41:34;22.43;71.65
71942;DHT22;59997;53.300;-6.260;2023-08-17T12:44:00;22.57;70.62
71942;DHT22;59997;53.300;-6.260;2023-08-17T12:46:26;22.59;69.20
71942;DHT22;59997;53.300;-6.260;2023-08-17T12:48:51;22.39;70.70
71942;DHT22;59997;53.300;-6.260;2023-08-17T12:51:17;22.41;68.73
71942;DHT22;59997;53.300;-6.260;2023-08-17T12:53:42;22.06;69.52
71942;DHT22;59997;53.300;-6.260;2023-08-17T12:56:08;21.98;72.45
71942;DHT22;59997;53.300;-6.260;2023-08-17T12:58:34;22.85;72.43
71942;DHT22;59997;53.300;-6.260;2023-08-17T13:00:59;23.21;68.03
71942;DHT22;59997;53.300;-6.260;2023-08-17T13:03:25;22.93;68.95
71942;DHT22;59997;53.300;-6.260;2023-08-17T13:05:50;22.99;67.37
71942;DHT22;59997;53.300;-6.260;2023-08-17T13:08:16;23.20;68.35
71942;DHT22;59997;53.300;-6.260;2023-08-17T13:10:41;23.04;69.00
71942;DHT22;59997;53.300;-6.260;2023-08-17T13:13:07;23.10;67.22
71942;DHT22;59997;53.300;-6.260;2023-08-17T13:15:33;23.07;66.79
71942;DHT22;59997;53.300;-6.260;2023-08-17T13:17:59;23.30;69.14
71942;DHT22;59997;53.300;-6.260;2023-08-17T13:20:25;24.27;65.71
71942;DHT22;59997;53.300;-6.260;2023-08-17T13:22:50;24.21;62.50
71942;DHT22;59997;53.300;-6.260;2023-08-17T13:25:16;24.64;65.50
71942;DHT22;59997;53.300;-6.260;2023-08-17T13:27:42;24.84;63.89
71942;DHT22;59997;53.300;-6.260;2023-08-17T13:30:07;25.11;63.63
71942;DHT22;59997;53.300;-6.260;2023-08-17T13:32:33;24.32;64.43
71942;DHT22;59997;53.300;-6.260;2023-08-17T13:34:58;23.59;65.19
71942;DHT22;59997;53.300;-6.260;2023-08-17T13:37:24;23.26;68.26
71942;DHT22;59997;53.300;-6.260;2023-08-17T13:39:49;23.85;67.07
71942;DHT22;59997;53.300;-6.260;2023-08-17T13:42:15;24.13;65.32
71942;DHT22;59997;53.300;-6.260;2023-08-17T13:44:41;24.48;63.49
71942;DHT22;59997;53.300;-6.260;2023-08-17T13:47:06;24.56;65.00
71942;DHT22;59997;53.300;-6.260;2023-08-17T13:49:32;23.65;64.28
71942;DHT22;59997;53.300;-6.260;2023-08-17T13:51:57;23.80;67.29
71942;DHT22;59997;53.300;-6.260;2023-08-17T13:54:23;23.37;67.86
71942;DHT22;59997;53.300;-6.260;2023-08-17T13:56:49;22.82;66.42
71942;DHT22;59997;53.300;-6.260;2023-08-17T13:59:15;22.33;71.00
71942;DHT22;59997;53.300;-6.260;2023-08-17T14:01:40;22.54;70.28
71942;DHT22;59997;53.300;-6.260;2023-08-17T14:04:06;22.37;70.22
71942;DHT22;59997;53.300;-6.260;2023-08-17T14:06:37;22.03;70.49
71942;DHT22;59997;53.300;-6.260;2023-08-17T14:09:03;21.85;72.93
71942;DHT22;59997;53.300;-6.260;2023-08-17T14:11:29;21.61;72.54
71942;DHT22;59997;53.300;-6.260;2023-08-17T14:13:54;21.61;73.03
71942;DHT22;59997;53.300;-6.260;2023-08-17T14:16:20;21.74;72.31
71942;DHT22;59997;53.300;-6.260;2023-08-17T14:18:45;22.24;72.85
71942;DHT22;59997;53.300;-6.260;2023-08-17T14:21:11;22.71;68.93
71942;DHT22;59997;53.300;-6.260;2023-08-17T14:23:38;23.07;69.29
71942;DHT22;59997;53.300;-6.260;2023-08-17T14:26:03;23.34;70.86
71942;DHT22;59997;53.300;-6.260;2023-08-17T14:28:29;22.93;70.72
71942;DHT22;59997;53.300;-6.260;2023-08-17T14:30:54;23.27;71.26
71942;DHT22;59997;53.300;-6.260;2023-08-17T14:33:20;22.36;69.78
71942;DHT22;59997;53.300;-6.260;2023-08-17T14:35:45;22.09;72.90
71942;DHT22;59997;53.300;-6.260;2023-08-17T14:38:11;21.91;72.61
71942;DHT22;59997;53.300;-6.260;2023-08-17T14:40:45;21.48;73.09
71942;DHT22;59997;53.300;-6.260;2023-08-17T14:43:12;20.94;74.93
71942;DHT22;59997;53.300;-6.260;2023-08-17T14:45:40;20.85;75.94
71942;DHT22;59997;53.300;-6.260;2023-08-17T14:48:06;20.51;76.94
71942;DHT22;59997;53.300;-6.260;2023-08-17T14:50:35;20.41;76.48
71942;DHT22;59997;53.300;-6.260;2023-08-17T14:53:01;20.34;76.58
71942;DHT22;59997;53.300;-6.260;2023-08-17T14:55:32;20.36;77.49
71942;DHT22;59997;53.300;-6.260;2023-08-17T14:57:58;20.53;78.17
71942;DHT22;59997;53.300;-6.260;2023-08-17T15:00:24;20.57;76.67
71942;DHT22;59997;53.300;-6.260;2023-08-17T15:02:50;20.55;77.72
71942;DHT22;59997;53.300;-6.260;2023-08-17T15:05:16;20.37;77.79
71942;DHT22;59997;53.300;-6.260;2023-08-17T15:07:42;20.26;79.16
71942;DHT22;59997;53.300;-6.260;2023-08-17T15:10:07;20.37;77.89
71942;DHT22;59997;53.300;-6.260;2023-08-17T15:12:33;20.48;77.17
71942;DHT22;59997;53.300;-6.260;2023-08-17T15:14:58;20.70;77.42
71942;DHT22;59997;53.300;-6.260;2023-08-17T15:17:24;20.79;77.61
71942;DHT22;59997;53.300;-6.260;2023-08-17T15:19:49;20.61;76.97
71942;DHT22;59997;53.300;-6.260;2023-08-17T15:22:15;20.87;77.28
71942;DHT22;59997;53.300;-6.260;2023-08-17T15:24:40;20.94;76.88
71942;DHT22;59997;53.300;-6.260;2023-08-17T15:27:08;20.60;77.60
71942;DHT22;59997;53.300;-6.260;2023-08-17T15:29:33;20.34;78.08
71942;DHT22;59997;53.300;-6.260;2023-08-17T15:31:59;20.09;77.67